Time;durP1;ratioP1;P1;durP2;ratioP2;P2;SDS_P1;SDS_P2;PMS_P1;PMS_P2;Temp;Humidity;BMP_temperature;BMP_pressure;BME280_temperature;BME280_humidity;BME280_pressure;Samples;Min_cycle;Max_cycle;Signal;HPM_P1;HPM_P2
2022/07/02 00:00:37;;;;;;;;;2.00;2.00;;;;;26.88;44.62;100933.78;146613;610;46018;-73
2022/07/02 00:03:36;;;;;;;;;2.00;1.67;;;;;26.88;44.66;100939.09;146611;597;46019;-72
2022/07/02 00:06:33;;;;;;;;;5.33;4.00;;;;;26.88;44.54;100924.94;146615;610;46010;-72
2022/07/02 00:09:27;;;;;;;;;2.00;2.00;;;;;26.91;44.56;100928.44;146612;603;46018;-72
2022/07/02 00:12:19;;;;;;;;;2.33;2.33;;;;;26.94;44.58;100924.84;146615;628;46011;-72
2022/07/02 00:15:12;;;;;;;;;4.00;4.00;;;;;26.97;44.55;100921.28;146613;574;46018;-74
2022/07/02 00:18:04;;;;;;;;;6.00;6.00;;;;;26.86;44.46;100918.78;146613;585;46018;-72
2022/07/02 00:20:57;;;;;;;;;6.00;6.00;;;;;26.63;45.16;100916.38;146613;599;46018;-72
2022/07/02 00:23:49;;;;;;;;;7.33;7.00;;;;;26.45;45.42;100917.47;146613;569;46018;-72
2022/07/02 00:26:49;;;;;;;;;6.00;5.33;;;;;26.24;46.00;100905.28;146613;586;46008;-71
2022/07/02 00:30:01;;;;;;;;;4.00;4.00;;;;;26.15;45.67;100913.34;146615;680;46020;-71
2022/07/02 00:32:53;;;;;;;;;5.50;5.00;;;;;26.09;46.34;100916.06;146613;578;46018;-70
2022/07/02 00:35:46;;;;;;;;;4.00;4.00;;;;;26.00;46.15;100909.91;146613;577;46019;-71
2022/07/02 00:38:38;;;;;;;;;4.75;4.75;;;;;25.93;46.39;100918.84;146612;659;46010;-70
2022/07/02 00:41:31;;;;;;;;;6.25;6.25;;;;;25.92;46.31;100910.88;146615;675;46019;-71
2022/07/02 00:44:26;;;;;;;;;7.00;6.25;;;;;25.87;46.41;100907.41;146615;670;45042;-70
2022/07/02 00:47:21;;;;;;;;;6.75;6.25;;;;;25.77;46.61;100904.78;146612;628;46018;-72
2022/07/02 00:50:14;;;;;;;;;6.50;6.00;;;;;25.69;46.31;100909.25;146612;583;47008;-69
2022/07/02 00:53:05;;;;;;;;;8.00;6.25;;;;;25.68;46.64;100901.31;146612;613;46010;-70
2022/07/02 00:56:02;;;;;;;;;6.50;6.00;;;;;25.73;46.56;100896.84;146613;566;46019;-70
2022/07/02 00:58:54;;;;;;;;;6.25;6.25;;;;;25.81;46.67;100903.00;146617;717;45020;-70
2022/07/02 01:01:46;;;;;;;;;7.50;6.50;;;;;25.84;46.66;100904.75;146607;624;46018;-69
2022/07/02 01:04:38;;;;;;;;;4.75;4.75;;;;;25.86;46.82;100900.28;146614;643;46010;-69
2022/07/02 01:07:32;;;;;;;;;5.00;4.00;;;;;25.90;47.39;100907.38;146612;570;46018;-70
2022/07/02 01:10:25;;;;;;;;;3.67;3.67;;;;;25.93;47.31;100904.69;146616;656;46010;-70
2022/07/02 01:13:18;;;;;;;;;5.50;4.50;;;;;26.00;47.07;100903.72;146614;705;46018;-69
2022/07/02 01:16:10;;;;;;;;;4.00;4.00;;;;;26.10;46.76;100905.38;146613;607;46018;-69
2022/07/02 01:19:02;;;;;;;;;5.25;4.00;;;;;26.17;46.14;100901.78;146612;606;46008;-69
2022/07/02 01:22:19;;;;;;;;;6.25;5.25;;;;;26.21;45.48;100898.19;146615;565;46018;-69
2022/07/02 01:25:12;;;;;;;;;3.67;3.67;;;;;26.22;45.71;100899.94;146612;665;46917;-69
2022/07/02 01:28:04;;;;;;;;;3.75;3.00;;;;;26.25;46.23;100899.03;146612;681;46010;-69
2022/07/02 01:30:56;;;;;;;;;3.00;2.75;;;;;25.32;46.20;100720.22;146615;587;46008;-71
2022/07/02 01:33:49;;;;;;;;;3.25;3.25;;;;;26.32;46.47;100892.75;146615;606;46008;-69
2022/07/02 01:36:41;;;;;;;;;7.50;5.00;;;;;26.34;47.62;100890.09;146611;574;46018;-71
2022/07/02 01:39:33;;;;;;;;;5.00;5.00;;;;;26.29;47.80;100881.28;146614;613;46018;-72
2022/07/02 01:42:25;;;;;;;;;5.25;5.00;;;;;26.30;47.80;100894.56;146613;614;46018;-69
2022/07/02 01:45:17;;;;;;;;;7.50;7.50;;;;;26.24;48.21;100887.53;146614;575;46018;-71
2022/07/02 01:48:09;;;;;;;;;7.50;6.50;;;;;26.14;48.90;100891.19;146615;627;46009;-72
2022/07/02 01:51:01;;;;;;;;;8.75;6.50;;;;;26.05;48.81;100893.06;146616;718;46010;-70
2022/07/02 01:53:53;;;;;;;;;6.25;6.25;;;;;25.99;48.81;100897.53;146611;662;46008;-71
2022/07/02 01:56:45;;;;;;;;;7.00;6.75;;;;;25.98;48.95;100900.19;146612;575;46018;-71
2022/07/02 01:59:38;;;;;;;;;4.50;3.50;;;;;25.97;49.32;100894.00;146610;563;46010;-71
2022/07/02 02:02:30;;;;;;;;;7.00;7.00;;;;;25.95;49.32;100905.53;146611;672;46012;-71
2022/07/02 02:05:24;;;;;;;;;10.50;8.00;;;;;25.91;49.89;100904.69;146613;565;46010;-71
2022/07/02 02:08:16;;;;;;;;;9.00;7.50;;;;;25.87;49.56;100902.09;146614;572;46010;-70
2022/07/02 02:11:08;;;;;;;;;5.50;4.00;;;;;25.85;49.42;100903.88;146615;613;45048;-69
2022/07/02 02:14:00;;;;;;;;;7.75;5.00;;;;;25.88;49.20;100902.06;146615;572;45020;-71
2022/07/02 02:16:52;;;;;;;;;10.50;7.75;;;;;25.90;49.74;100907.38;146612;662;46018;-70
2022/07/02 02:19:44;;;;;;;;;6.00;6.00;;;;;25.89;49.76;100903.84;146614;570;46018;-69
2022/07/02 02:22:36;;;;;;;;;8.75;8.50;;;;;25.91;49.63;100907.34;146617;569;46018;-68
2022/07/02 02:25:28;;;;;;;;;9.00;7.75;;;;;25.92;49.52;100916.19;146615;569;45021;-69
2022/07/02 02:28:22;;;;;;;;;8.75;7.75;;;;;25.92;49.50;100910.88;146613;569;46018;-69
2022/07/02 02:31:14;;;;;;;;;5.75;5.75;;;;;25.91;49.20;100910.00;146613;596;46010;-70
2022/07/02 02:34:06;;;;;;;;;7.00;6.00;;;;;25.88;49.42;100902.06;146614;571;46919;-69
2022/07/02 02:36:59;;;;;;;;;6.25;6.25;;;;;25.91;48.95;100898.50;146615;661;46018;-70
2022/07/02 02:39:51;;;;;;;;;5.00;5.00;;;;;25.97;49.09;100904.63;146611;588;46018;-72
2022/07/02 02:42:43;;;;;;;;;7.25;7.00;;;;;26.00;48.83;100909.91;146612;694;46018;-71
2022/07/02 02:45:35;;;;;;;;;5.00;5.00;;;;;25.95;48.80;100906.44;146613;729;46008;-73
2022/07/02 02:48:27;;;;;;;;;9.00;7.25;;;;;25.77;48.99;100901.25;146615;639;46012;-69
2022/07/02 02:51:19;;;;;;;;;6.25;6.25;;;;;25.47;49.39;100900.59;146613;572;46018;-71
2022/07/02 02:54:10;;;;;;;;;6.50;5.50;;;;;25.31;50.12;100913.09;146611;701;46010;-69
2022/07/02 02:57:03;;;;;;;;;6.50;5.50;;;;;25.17;50.27;100916.69;146611;678;46008;-69
2022/07/02 02:59:56;;;;;;;;;7.25;6.25;;;;;25.04;50.51;100918.50;146613;582;46010;-69
2022/07/02 03:02:48;;;;;;;;;8.00;6.75;;;;;24.96;50.52;100918.56;146614;691;46019;-68
2022/07/02 03:05:40;;;;;;;;;7.50;5.75;;;;;24.93;50.22;100920.34;146615;581;46018;-68
2022/07/02 03:08:32;;;;;;;;;6.75;5.25;;;;;24.90;50.78;100918.59;146613;573;46919;-74
2022/07/02 03:11:24;;;;;;;;;7.25;6.75;;;;;24.81;51.32;100923.94;146616;576;46010;-75
2022/07/02 03:14:16;;;;;;;;;5.00;4.50;;;;;24.67;51.24;100923.97;146612;566;46018;-70
2022/07/02 03:17:08;;;;;;;;;7.25;6.75;;;;;24.54;51.87;100928.44;146615;663;46010;-72
2022/07/02 03:20:00;;;;;;;;;7.50;5.75;;;;;24.43;51.46;100935.56;146615;699;45920;-71
2022/07/02 03:22:52;;;;;;;;;5.50;5.50;;;;;24.34;51.97;100941.72;146613;716;46010;-71
2022/07/02 03:25:44;;;;;;;;;8.00;6.25;;;;;24.30;51.66;100947.00;146610;660;46919;-69
2022/07/02 03:28:37;;;;;;;;;6.50;6.25;;;;;24.36;51.64;100941.69;146614;586;46010;-69
2022/07/02 03:31:29;;;;;;;;;5.50;4.75;;;;;24.44;51.58;100947.91;146612;583;46018;-69
2022/07/02 03:34:21;;;;;;;;;7.00;7.00;;;;;24.52;51.48;100939.94;146613;708;46010;-69
2022/07/02 03:37:14;;;;;;;;;8.25;6.00;;;;;24.59;51.03;100947.88;146614;578;46018;-70
2022/07/02 03:40:06;;;;;;;;;7.50;7.00;;;;;24.66;51.33;100938.13;146614;634;45020;-68
2022/07/02 03:42:58;;;;;;;;;5.00;3.00;;;;;24.76;51.35;100958.41;146614;575;46008;-72
2022/07/02 03:45:50;;;;;;;;;6.00;6.00;;;;;24.84;51.16;100946.00;146615;668;46018;-72
2022/07/02 03:48:42;;;;;;;;;5.25;4.25;;;;;24.87;51.13;100946.00;146614;610;46016;-69
2022/07/02 03:51:34;;;;;;;;;6.75;6.75;;;;;24.90;51.35;100947.78;146613;629;46018;-69
2022/07/02 03:54:26;;;;;;;;;6.25;6.25;;;;;24.89;51.74;100952.19;146611;599;46010;-72
2022/07/02 03:57:18;;;;;;;;;4.75;4.75;;;;;24.86;51.48;100946.91;146615;654;46018;-70
2022/07/02 04:00:12;;;;;;;;;7.25;5.50;;;;;24.80;51.98;100943.41;146613;594;46018;-71
2022/07/02 04:03:04;;;;;;;;;6.25;6.00;;;;;24.72;51.35;100951.38;146615;590;46010;-70
2022/07/02 04:05:56;;;;;;;;;7.00;6.67;;;;;24.74;51.69;100949.59;146611;665;46008;-68
2022/07/02 04:08:48;;;;;;;;;8.75;8.00;;;;;24.78;51.96;100951.34;146612;617;46012;-68
2022/07/02 04:11:40;;;;;;;;;6.00;6.00;;;;;24.74;51.88;100931.03;146613;638;46008;-69
2022/07/02 04:14:32;;;;;;;;;5.67;5.67;;;;;24.92;52.14;100950.41;146643;569;45024;-68
2022/07/02 04:17:25;;;;;;;;;5.00;5.00;;;;;24.97;51.83;100943.31;146638;622;46009;-68
2022/07/02 04:20:16;;;;;;;;;7.00;7.00;;;;;25.08;51.78;100938.84;146640;610;46010;-68
2022/07/02 04:23:09;;;;;;;;;7.00;6.00;;;;;25.21;51.34;100942.34;146640;624;45011;-69
2022/07/02 04:26:01;;;;;;;;;6.75;6.25;;;;;25.41;51.02;100932.47;146636;638;46012;-68
2022/07/02 04:28:53;;;;;;;;;5.33;4.67;;;;;25.63;51.03;100930.56;146641;636;45010;-68
2022/07/02 04:31:44;;;;;;;;;6.00;4.75;;;;;25.88;50.40;100936.59;146638;564;45019;-69
2022/07/02 04:34:37;;;;;;;;;6.50;6.50;;;;;26.12;49.75;100937.28;146639;697;46008;-68
2022/07/02 04:37:28;;;;;;;;;5.00;4.00;;;;;26.32;49.23;100943.25;146641;590;45018;-69
2022/07/02 04:40:21;;;;;;;;;6.00;6.00;;;;;26.52;49.20;100943.09;146640;626;45010;-69
2022/07/02 04:43:12;;;;;;;;;7.00;7.00;;;;;26.70;49.34;100942.91;146639;623;45030;-69
2022/07/02 04:46:05;;;;;;;;;6.00;4.50;;;;;26.87;48.66;100944.47;146641;588;45018;-70
2022/07/02 04:48:57;;;;;;;;;6.75;5.75;;;;;27.07;48.01;100949.53;146638;675;46010;-68
2022/07/02 04:51:49;;;;;;;;;5.50;5.50;;;;;27.23;47.43;100940.47;146639;635;46008;-67
2022/07/02 04:54:41;;;;;;;;;6.67;6.67;;;;;27.34;47.52;100943.84;146642;584;45010;-67
2022/07/02 04:57:33;;;;;;;;;8.00;7.25;;;;;27.41;47.16;100941.97;146641;593;45018;-67
2022/07/02 05:00:25;;;;;;;;;6.67;5.33;;;;;27.52;47.32;100940.03;146637;565;46012;-69
2022/07/02 05:03:18;;;;;;;;;6.50;5.25;;;;;27.68;47.41;100946.00;146641;599;46008;-68
2022/07/02 05:06:10;;;;;;;;;5.67;5.67;;;;;27.83;46.13;100950.25;146641;594;46010;-69
2022/07/02 05:09:02;;;;;;;;;5.33;5.33;;;;;27.96;46.65;100951.81;146639;681;45019;-69
2022/07/02 05:11:55;;;;;;;;;6.50;5.50;;;;;28.11;46.07;100955.13;146635;678;46012;-70
2022/07/02 05:14:48;;;;;;;;;8.67;7.33;;;;;28.25;45.90;100956.63;146612;643;46018;-70
2022/07/02 05:17:40;;;;;;;;;7.25;6.25;;;;;28.43;45.96;100955.44;146612;711;46019;-70
2022/07/02 05:20:32;;;;;;;;;9.50;9.00;;;;;28.58;45.52;100958.72;146610;614;46018;-69
2022/07/02 05:23:24;;;;;;;;;10.25;10.25;;;;;28.66;45.64;100956.78;146612;576;46010;-68
2022/07/02 05:26:19;;;;;;;;;11.00;11.00;;;;;28.73;45.26;100955.75;146608;580;46018;-68
2022/07/02 05:29:11;;;;;;;;;9.25;7.75;;;;;28.78;45.97;100945.84;146613;637;46010;-69
2022/07/02 05:32:03;;;;;;;;;8.50;7.25;;;;;28.83;45.15;100960.00;146613;601;46008;-69
2022/07/02 05:34:55;;;;;;;;;10.75;9.75;;;;;28.89;45.83;100962.53;146614;669;46010;-69
2022/07/02 05:37:47;;;;;;;;;6.00;5.00;;;;;28.98;44.92;100961.47;146612;564;46019;-69
2022/07/02 05:40:40;;;;;;;;;6.50;6.00;;;;;29.12;44.90;100950.50;146616;723;46018;-69
2022/07/02 05:43:32;;;;;;;;;7.00;6.00;;;;;29.22;44.24;100952.97;146614;571;46010;-68
2022/07/02 05:46:24;;;;;;;;;10.25;8.25;;;;;29.28;44.88;100961.72;146616;658;45020;-70
2022/07/02 05:49:16;;;;;;;;;4.00;4.00;;;;;29.35;44.39;100952.69;146610;637;46018;-67
2022/07/02 05:52:09;;;;;;;;;8.50;5.25;;;;;29.46;44.13;100961.31;146616;639;46018;-71
2022/07/02 05:55:01;;;;;;;;;6.00;4.00;;;;;29.57;43.31;100956.63;146612;673;46019;-71
2022/07/02 05:57:53;;;;;;;;;0.75;0.75;;;;;29.61;43.54;100958.31;146616;602;46010;-70
2022/07/02 06:00:45;;;;;;;;;7.50;6.75;;;;;29.64;43.46;100960.94;146611;636;46917;-70
2022/07/02 06:03:37;;;;;;;;;8.25;7.25;;;;;29.77;43.39;100966.84;146618;689;46010;-69
2022/07/02 06:09:39;;;;;;;;;7.25;6.50;;;;;29.93;42.49;100951.31;146616;617;46010;-71
2022/07/02 06:12:32;;;;;;;;;5.25;5.25;;;;;30.02;42.06;100950.19;146615;672;46018;-69
2022/07/02 06:15:25;;;;;;;;;10.50;6.50;;;;;30.05;41.89;100956.34;146612;655;46019;-70
2022/07/02 06:18:17;;;;;;;;;9.00;7.00;;;;;30.08;42.17;100958.94;146615;571;46018;-69
2022/07/02 06:21:09;;;;;;;;;8.75;7.75;;;;;30.19;42.12;100961.34;146613;703;46018;-69
2022/07/02 06:24:01;;;;;;;;;6.25;6.00;;;;;30.33;41.65;100964.56;146613;716;46008;-70
2022/07/02 06:26:52;;;;;;;;;5.75;5.75;;;;;30.50;41.77;100968.56;146615;589;46018;-70
2022/07/02 06:29:47;;;;;;;;;5.67;5.33;;;;;30.70;41.61;100965.34;146616;569;46019;-68
2022/07/02 06:32:39;;;;;;;;;7.00;7.00;;;;;30.88;41.46;100963.97;146614;563;46018;-69
2022/07/02 06:35:31;;;;;;;;;7.00;6.00;;;;;31.09;42.04;100976.69;146613;686;46018;-68
2022/07/02 06:38:24;;;;;;;;;8.00;5.67;;;;;31.33;41.14;100971.53;146615;573;46010;-70
2022/07/02 06:44:26;;;;;;;;;6.50;6.00;;;;;31.58;39.42;100979.72;146613;565;46011;-71
2022/07/02 06:47:19;;;;;;;;;7.00;5.75;;;;;31.64;40.26;100972.34;146612;566;46008;-69
2022/07/02 06:50:12;;;;;;;;;7.50;5.25;;;;;31.74;39.80;100970.25;146615;621;46010;-70
2022/07/02 06:53:04;;;;;;;;;7.00;7.00;;;;;30.93;40.00;100828.16;146616;596;46026;-71
2022/07/02 06:55:56;;;;;;;;;6.25;5.00;;;;;31.86;39.26;100983.25;146617;575;46018;-70
2022/07/02 06:58:48;;;;;;;;;5.75;4.00;;;;;31.93;38.61;100974.12;146615;571;46008;-70
2022/07/02 07:01:40;;;;;;;;;4.75;4.75;;;;;32.04;39.89;100981.81;146617;584;45020;-70
2022/07/02 07:04:32;;;;;;;;;7.50;7.50;;;;;32.18;38.76;100979.53;146617;564;46008;-70
2022/07/02 07:07:27;;;;;;;;;6.50;5.00;;;;;32.19;38.43;100973.22;146613;689;46012;-70
2022/07/02 07:10:19;;;;;;;;;5.75;5.50;;;;;32.17;38.18;100983.13;146615;592;46018;-70
2022/07/02 07:13:11;;;;;;;;;5.25;5.00;;;;;32.12;38.83;100978.84;146617;701;46010;-71
2022/07/02 07:16:03;;;;;;;;;4.00;3.00;;;;;32.10;38.77;100970.00;146614;610;46010;-71
2022/07/02 07:18:59;;;;;;;;;5.75;4.75;;;;;32.08;38.80;100977.19;146613;625;46018;-70
2022/07/02 07:21:51;;;;;;;;;7.00;7.00;;;;;32.02;38.00;100978.28;146613;614;46010;-71
2022/07/02 07:24:44;;;;;;;;;7.50;5.25;;;;;31.87;38.88;100963.56;146616;610;46010;-70
2022/07/02 07:27:36;;;;;;;;;5.25;5.25;;;;;31.99;38.78;100975.69;146610;569;46018;-70
2022/07/02 07:30:28;;;;;;;;;6.00;5.00;;;;;32.15;38.33;100973.38;146616;583;46012;-70
2022/07/02 07:33:20;;;;;;;;;2.00;2.00;;;;;32.24;37.89;100970.38;146613;730;46018;-71
2022/07/02 07:36:12;;;;;;;;;6.25;5.00;;;;;32.35;37.85;100972.69;146613;580;46012;-70
2022/07/02 07:39:05;;;;;;;;;2.75;2.25;;;;;32.47;37.29;100972.28;146615;577;46018;-70
2022/07/02 07:41:57;;;;;;;;;6.75;6.00;;;;;32.22;37.42;100913.22;146613;704;46018;-70
2022/07/02 07:44:49;;;;;;;;;6.25;6.00;;;;;32.62;37.30;100968.19;146611;684;46917;-70
2022/07/02 07:47:41;;;;;;;;;6.25;5.75;;;;;32.76;37.24;100964.97;146613;664;46018;-71
2022/07/02 07:50:34;;;;;;;;;5.00;5.00;;;;;32.92;37.19;100966.16;146612;591;46018;-71
2022/07/02 07:53:26;;;;;;;;;6.25;5.75;;;;;33.09;36.33;100963.75;146617;683;46010;-71
2022/07/02 07:56:18;;;;;;;;;9.75;8.75;;;;;33.21;36.83;100962.41;146610;717;46917;-70
2022/07/02 07:59:10;;;;;;;;;7.50;6.50;;;;;33.34;36.62;100970.84;146618;640;45020;-70
2022/07/02 08:02:03;;;;;;;;;9.75;7.75;;;;;33.41;35.70;100968.78;146612;668;46010;-71
2022/07/02 08:04:55;;;;;;;;;7.25;6.50;;;;;33.42;35.75;100968.72;146616;629;46018;-70
2022/07/02 08:07:47;;;;;;;;;7.25;6.25;;;;;33.45;35.70;100971.28;146612;607;46019;-70
2022/07/02 08:10:39;;;;;;;;;10.25;8.00;;;;;33.51;37.13;100970.19;146613;640;46018;-70
2022/07/02 08:13:32;;;;;;;;;6.50;5.25;;;;;33.67;35.67;100979.37;146614;711;46008;-71
2022/07/02 08:16:23;;;;;;;;;9.25;8.25;;;;;33.81;36.34;100973.44;146613;649;46010;-70
2022/07/02 08:19:16;;;;;;;;;7.50;6.50;;;;;33.93;36.97;100969.37;146612;738;46018;-69
2022/07/02 08:22:08;;;;;;;;;7.00;6.25;;;;;34.00;36.27;100974.41;146613;571;46012;-70
2022/07/02 08:25:00;;;;;;;;;8.75;8.25;;;;;34.05;36.38;100984.12;146613;589;46010;-70
2022/07/02 08:27:52;;;;;;;;;4.00;4.00;;;;;34.05;36.13;100984.12;146614;640;46010;-70
2022/07/02 08:30:44;;;;;;;;;11.00;8.00;;;;;34.06;37.48;100981.41;146612;604;46018;-69
2022/07/02 08:33:36;;;;;;;;;0.00;0.00;;;;;34.09;36.58;100980.41;146615;563;46018;-70
2022/07/02 08:36:30;;;;;;;;;7.75;7.50;;;;;34.11;36.28;100983.88;146616;641;46018;-69
2022/07/02 08:39:22;;;;;;;;;7.25;6.00;;;;;34.11;36.24;100981.19;146613;690;46010;-68
2022/07/02 08:42:15;;;;;;;;;6.00;4.00;;;;;34.11;35.48;100989.25;146613;649;46019;-68
2022/07/02 08:45:08;;;;;;;;;9.00;8.00;;;;;34.12;35.97;100982.97;146611;580;46019;-71
2022/07/02 08:48:02;;;;;;;;;10.25;8.25;;;;;34.18;36.59;100988.06;146609;569;46008;-71
2022/07/02 08:50:56;;;;;;;;;7.50;7.50;;;;;34.32;37.62;100990.16;146614;632;46010;-81
2022/07/02 08:53:50;;;;;;;;;7.75;7.00;;;;;34.42;36.11;100991.50;146611;696;46018;-76
2022/07/02 08:56:43;;;;;;;;;8.25;8.25;;;;;34.42;37.01;100989.66;146612;685;46012;-76
2022/07/02 08:59:36;;;;;;;;;14.25;13.00;;;;;34.46;37.10;100983.22;146604;593;46019;-77
2022/07/02 09:02:30;;;;;;;;;7.00;7.00;;;;;34.61;37.76;100978.12;146611;660;46018;-76
2022/07/02 09:05:23;;;;;;;;;10.25;9.00;;;;;34.72;36.11;100976.69;146611;574;46019;-76
2022/07/02 09:08:16;;;;;;;;;11.50;9.25;;;;;34.80;36.64;100978.16;146613;569;46008;-76
2022/07/02 09:11:10;;;;;;;;;9.25;9.25;;;;;34.86;36.44;100981.47;146611;648;46008;-77
2022/07/02 09:14:04;;;;;;;;;15.50;12.50;;;;;34.68;35.43;100979.63;146610;601;45040;-76
2022/07/02 09:16:56;;;;;;;;;9.75;8.75;;;;;34.49;37.54;100977.72;146609;606;46018;-78
2022/07/02 09:19:48;;;;;;;;;16.50;14.00;;;;;34.26;37.99;100984.09;146604;587;46012;-78
2022/07/02 09:22:48;;;;;;;;;12.75;11.25;;;;;34.11;37.53;100973.13;146606;566;45040;-78
2022/07/02 09:25:40;;;;;;;;;11.50;11.00;;;;;34.07;37.68;100977.75;146607;582;46018;-80
2022/07/02 09:28:32;;;;;;;;;12.00;11.00;;;;;34.03;37.14;100977.00;146609;599;46027;-78
2022/07/02 09:31:24;;;;;;;;;10.00;10.00;;;;;34.00;38.07;100979.81;146608;599;46018;-80
2022/07/02 09:34:27;;;;;;;;;11.50;8.50;;;;;33.97;36.73;100973.69;146607;735;46919;-79
2022/07/02 09:37:24;;;;;;;;;10.75;8.50;;;;;33.78;36.14;100976.28;146609;563;46010;-78
2022/07/02 09:40:17;;;;;;;;;10.75;10.75;;;;;33.72;38.40;100972.00;146606;619;46018;-79
2022/07/02 09:43:09;;;;;;;;;9.75;9.00;;;;;33.75;37.72;100979.09;146611;575;46010;-78
2022/07/02 09:46:04;;;;;;;;;9.50;8.75;;;;;33.75;38.00;100976.41;146609;608;46018;-76
2022/07/02 09:48:56;;;;;;;;;12.75;11.50;;;;;33.69;37.68;100965.87;146612;721;45032;-76
2022/07/02 09:51:57;;;;;;;;;12.25;12.25;;;;;33.67;39.18;100976.69;146603;623;46018;-77
2022/07/02 09:54:49;;;;;;;;;12.00;10.50;;;;;33.69;37.95;100965.87;146611;568;46032;-78
2022/07/02 09:57:41;;;;;;;;;11.50;10.50;;;;;33.77;38.05;100970.03;146606;622;45919;-77
2022/07/02 10:00:36;;;;;;;;;11.75;10.50;;;;;33.87;37.64;100972.31;146610;691;46018;-77
2022/07/02 10:03:29;;;;;;;;;13.50;11.50;;;;;33.90;36.51;100970.38;146607;591;46018;-78
2022/07/02 10:06:22;;;;;;;;;11.00;10.75;;;;;33.89;36.96;100971.28;146609;582;46010;-77
2022/07/02 10:09:16;;;;;;;;;12.50;12.00;;;;;33.91;36.88;100969.44;146606;588;46018;-79
2022/07/02 10:12:09;;;;;;;;;12.75;12.75;;;;;33.95;37.54;100962.97;146609;603;45048;-77
2022/07/02 10:15:04;;;;;;;;;12.25;10.25;;;;;34.00;35.95;100969.03;146606;746;46008;-75
2022/07/02 10:17:59;;;;;;;;;11.75;11.00;;;;;33.81;35.78;100973.44;146604;612;46019;-79
2022/07/02 10:20:51;;;;;;;;;10.50;10.50;;;;;33.71;36.44;100964.00;146606;579;46008;-79
2022/07/02 10:23:46;;;;;;;;;8.50;7.75;;;;;33.51;35.21;100968.38;146611;587;46012;-80
2022/07/02 10:26:39;;;;;;;;;10.75;10.00;;;;;33.51;37.27;100971.06;146607;594;46008;-81
2022/07/02 10:29:33;;;;;;;;;11.00;10.00;;;;;33.23;37.06;100968.56;146605;647;46018;-79
2022/07/02 10:32:39;;;;;;;;;13.00;12.50;;;;;33.15;36.46;100969.78;146602;573;46010;-79
2022/07/02 10:35:32;;;;;;;;;11.75;11.75;;;;;33.10;36.60;100970.84;146604;604;46012;-79
2022/07/02 10:38:38;;;;;;;;;12.00;10.75;;;;;33.16;36.56;100966.19;146605;580;46018;-77
2022/07/02 10:41:35;;;;;;;;;9.25;9.25;;;;;33.31;38.00;100974.53;146604;574;46010;-78
2022/07/02 10:44:27;;;;;;;;;10.50;10.50;;;;;33.49;37.24;100969.34;146607;581;46008;-78
2022/07/02 10:47:32;;;;;;;;;11.50;10.75;;;;;33.65;37.01;100970.53;146607;581;46010;-78
2022/07/02 10:50:59;;;;;;;;;10.00;10.00;;;;;33.64;35.99;100941.00;146606;582;46008;-78
2022/07/02 10:53:55;;;;;;;;;11.50;11.00;;;;;33.91;36.54;100963.19;146605;617;46010;-77
2022/07/02 10:56:51;;;;;;;;;11.75;10.25;;;;;34.02;34.77;100966.34;146607;580;46018;-78
2022/07/02 10:59:43;;;;;;;;;8.00;8.00;;;;;34.12;34.73;100969.50;146611;583;46010;-78
2022/07/02 11:02:39;;;;;;;;;11.00;9.00;;;;;34.19;34.73;100968.28;146609;655;46008;-76
2022/07/02 11:05:31;;;;;;;;;10.50;10.50;;;;;34.18;34.33;100972.81;146606;633;47020;-75
2022/07/02 11:08:48;;;;;;;;;10.75;10.75;;;;;34.23;36.41;100977.97;146607;697;46008;-78
2022/07/02 11:11:56;;;;;;;;;11.00;10.50;;;;;34.14;33.57;100973.84;146608;607;45045;-78
2022/07/02 11:14:58;;;;;;;;;8.25;8.25;;;;;33.97;36.18;100977.25;146638;577;45010;-76
2022/07/02 11:17:55;;;;;;;;;9.75;9.50;;;;;33.83;34.89;100978.75;146637;585;45010;-77
2022/07/02 11:20:47;;;;;;;;;10.00;8.50;;;;;33.72;35.08;100977.38;146632;566;46008;-78
2022/07/02 11:23:40;;;;;;;;;11.50;10.50;;;;;33.62;34.74;100977.84;146636;600;46010;-78
2022/07/02 11:26:32;;;;;;;;;12.00;11.00;;;;;33.61;35.69;100973.38;146631;580;46008;-77
2022/07/02 11:29:24;;;;;;;;;12.25;10.75;;;;;33.70;35.90;100970.31;146633;578;45010;-78
2022/07/02 11:32:17;;;;;;;;;11.25;11.25;;;;;33.86;35.91;100976.81;146629;600;45010;-77
2022/07/02 11:35:09;;;;;;;;;10.50;10.25;;;;;33.97;35.33;100968.28;146633;593;45033;-77
2022/07/02 11:38:02;;;;;;;;;11.50;10.50;;;;;34.07;35.76;100968.81;146631;618;46010;-77
2022/07/02 11:40:54;;;;;;;;;11.50;10.75;;;;;34.15;36.36;100977.44;146632;617;45010;-76
2022/07/02 11:43:46;;;;;;;;;11.75;11.25;;;;;34.23;35.89;100972.59;146636;593;45010;-74
2022/07/02 11:46:38;;;;;;;;;11.50;10.75;;;;;34.20;35.77;100970.03;146635;601;45018;-74
2022/07/02 11:49:40;;;;;;;;;10.25;10.00;;;;;34.21;36.24;100974.50;146637;654;45010;-74
2022/07/02 11:52:32;;;;;;;;;8.50;8.50;;;;;34.15;37.44;100974.75;146637;587;45020;-74
2022/07/02 11:55:25;;;;;;;;;11.00;9.00;;;;;34.14;37.29;100972.97;146631;585;45011;-76
2022/07/02 11:58:17;;;;;;;;;12.50;10.75;;;;;34.14;38.48;100965.78;146628;658;45020;-76
2022/07/02 12:01:20;;;;;;;;;11.50;11.00;;;;;34.19;38.02;100960.22;146629;609;45018;-75
2022/07/02 12:04:17;;;;;;;;;11.75;10.75;;;;;34.26;38.08;100959.00;146629;663;45913;-74
2022/07/02 12:07:10;;;;;;;;;10.75;10.00;;;;;34.31;38.77;100961.50;146632;594;45010;-75
2022/07/02 12:10:03;;;;;;;;;9.75;9.75;;;;;34.36;39.36;100960.34;146631;643;45021;-76
2022/07/02 12:12:55;;;;;;;;;10.25;10.25;;;;;34.42;38.62;100961.88;146617;602;46018;-76
2022/07/02 12:15:51;;;;;;;;;11.75;11.75;;;;;34.39;38.61;100954.81;146605;593;45020;-75
2022/07/02 12:18:44;;;;;;;;;11.50;11.50;;;;;34.39;38.68;100949.44;146607;607;45019;-75
2022/07/02 12:21:51;;;;;;;;;8.75;6.00;;;;;34.39;38.20;100954.81;146614;604;46018;-76
2022/07/02 12:24:43;;;;;;;;;12.50;12.00;;;;;34.40;39.55;100948.50;146603;566;46008;-75
2022/07/02 12:27:36;;;;;;;;;13.50;12.25;;;;;34.42;39.87;100951.13;146608;618;46010;-74
2022/07/02 12:30:29;;;;;;;;;16.25;14.50;;;;;34.43;39.57;100937.59;146600;599;46008;-74
2022/07/02 12:33:34;;;;;;;;;12.75;11.75;;;;;34.41;38.70;100928.72;146608;611;46019;-75
2022/07/02 12:36:27;;;;;;;;;13.00;13.00;;;;;34.46;38.66;100929.38;146602;585;46008;-75
2022/07/02 12:39:19;;;;;;;;;12.25;12.00;;;;;34.46;39.10;100939.28;146601;660;46013;-75
2022/07/02 12:42:23;;;;;;;;;17.00;15.50;;;;;34.43;39.10;100928.66;146605;585;46018;-74
2022/07/02 12:45:31;;;;;;;;;12.50;12.50;;;;;34.46;38.55;100926.69;146603;639;46012;-76
2022/07/02 12:48:24;;;;;;;;;16.00;14.00;;;;;34.45;39.64;100929.44;146603;613;46019;-74
2022/07/02 12:51:17;;;;;;;;;14.25;12.75;;;;;34.45;38.73;100926.75;146604;664;46018;-76
2022/07/02 12:54:09;;;;;;;;;15.00;13.50;;;;;34.44;41.71;100925.00;146602;623;46018;-75
2022/07/02 12:57:01;;;;;;;;;15.00;15.00;;;;;34.50;39.35;100919.34;146603;566;46018;-73
2022/07/02 12:59:55;;;;;;;;;15.75;14.50;;;;;34.58;38.78;100916.31;146602;584;46916;-74
2022/07/02 13:02:47;;;;;;;;;16.00;15.50;;;;;34.69;40.35;100914.03;146606;613;46020;-72
2022/07/02 13:05:41;;;;;;;;;16.25;16.25;;;;;34.89;38.44;100908.59;146603;571;46018;-76
2022/07/02 13:08:33;;;;;;;;;17.25;16.50;;;;;35.08;36.51;100905.03;146605;612;45020;-73
2022/07/02 13:11:27;;;;;;;;;16.25;15.00;;;;;35.12;37.89;100895.88;146601;586;46019;-76
2022/07/02 13:14:19;;;;;;;;;16.25;15.25;;;;;35.12;36.49;100898.56;146604;615;46010;-76
2022/07/02 13:17:14;;;;;;;;;16.25;16.25;;;;;35.25;36.57;100912.31;146601;576;46008;-78
2022/07/02 13:20:07;;;;;;;;;15.75;13.75;;;;;35.23;37.14;100909.66;146603;622;46018;-80
2022/07/02 13:22:59;;;;;;;;;16.00;16.00;;;;;35.20;36.19;100904.44;146603;685;46008;-72
2022/07/02 13:25:51;;;;;;;;;18.50;17.50;;;;;35.15;37.33;100901.97;146604;575;46008;-80